Hauptseite
METAR-TAF:

METAR-TAF

Flughäfen :

Kbely

Prag, Tschechien

Breite: 50-07-17N, Länge: 14-32-37E, Höhe: 286 m

Beobachtung

Neuester Wetterbericht von vor 18 Minuten, um 08:00 UTC
Wind 4 kt aus Nordost, variierte zwischen Nord und Ost
Temperatur 20°C
Luftfeuchtigkeit 56%
Luftdruck 1025 hPa
Sichtweite 10 km oder mehr
keine Wolken unter 1500 m und keine Kumulonimbus oder Gewitterwolken

METAR: LKKB 110800Z 04004KT 350V080 CAVOK 20/11 Q1025 NOSIG

Zeit: 10:18 (08:18 UTC)

Prognose

Neuester Wetterbericht von vor 3 Stunden und 18 Minuten, um 05:00 UTC
Gültige Prognose vom 11 um 06 UTC bis 12 um 06 UTC
Wind 2 kt aus unterschiedlichen Richtungen
Sichtweite 10 km oder mehr
keine Wolken unter 1500 m und keine Kumulonimbus oder Gewitterwolken
Übergehend zu
vom 11 um 08 UTC bis 11 um 10 UTC
Wind 6 kt aus Ost/Nordost

TAF: LKKB 110500Z 1106/1206 VRB02KT CAVOK BECMG 1108/1110 07006KT

Wetterbeobachtungen und Prognosen von mehr als 4000 Flughäfen (METAR und TAF Bericht).

Die verfügbaren Stationen werden durch gelbe und rote Markierungen auf der Karte dargestellt.

Führen Sie die Maus auf sie, um den Namen der Station zu sehen.

Darauf klicken, um die Beobachtung von Wetterbeobachtungen und Prognosen zu sehen.

Um die Karte zu ändern : klicken Sie auf den grünen Tasten mit einem schwarzen Kreuz Zum Vergrößern, auf den grünen Button mit einem Gedankenstrich zu verkleinern, oder auf die grünen Pfeile für benachbarte Karten.


METAR-TAF: